createdAt,value
2023-05-16T00:01:20.005Z,9.79
2023-05-16T00:03:46.719Z,9.73
2023-05-16T00:06:13.389Z,9.70
2023-05-16T00:08:39.992Z,9.72
2023-05-16T00:11:06.457Z,9.71
2023-05-16T00:13:33.070Z,9.70
2023-05-16T00:16:02.488Z,9.72
2023-05-16T00:18:29.007Z,9.77
2023-05-16T00:20:56.078Z,9.78
2023-05-16T00:23:22.718Z,9.77
2023-05-16T00:25:49.248Z,9.76
2023-05-16T00:28:15.772Z,9.73
2023-05-16T00:30:42.336Z,9.73
2023-05-16T00:33:08.970Z,9.70
2023-05-16T00:35:35.580Z,9.66
2023-05-16T00:38:02.151Z,9.62
2023-05-16T00:40:29.001Z,9.59
2023-05-16T00:42:55.827Z,9.55
2023-05-16T00:45:22.558Z,9.48
2023-05-16T00:47:49.161Z,9.42
2023-05-16T00:50:16.824Z,9.37
2023-05-16T00:52:43.668Z,9.30
2023-05-16T00:55:10.938Z,9.26
2023-05-16T00:57:38.321Z,9.23
2023-05-16T01:00:07.293Z,9.18
2023-05-16T01:02:34.940Z,9.16
2023-05-16T01:05:02.007Z,9.18
2023-05-16T01:07:28.865Z,9.14
2023-05-16T01:09:55.515Z,9.07
2023-05-16T01:12:33.925Z,9.00
2023-05-16T01:15:21.218Z,8.94
2023-05-16T01:18:00.785Z,8.85
2023-05-16T01:20:45.471Z,8.78
2023-05-16T01:23:57.366Z,8.70
2023-05-16T01:26:26.954Z,8.66
2023-05-16T01:28:54.739Z,8.63
2023-05-16T01:31:22.524Z,8.60
2023-05-16T01:33:49.856Z,8.57
2023-05-16T01:36:44.222Z,8.55
2023-05-16T01:39:42.330Z,8.50
2023-05-16T01:42:14.269Z,8.42
2023-05-16T01:44:46.806Z,8.40
2023-05-16T01:47:16.358Z,8.37
2023-05-16T01:49:58.080Z,8.32
2023-05-16T01:52:31.325Z,8.28
2023-05-16T01:54:59.368Z,8.27
2023-05-16T01:57:27.150Z,8.25
2023-05-16T01:59:53.864Z,8.23
2023-05-16T02:02:20.893Z,8.20
2023-05-16T02:04:47.454Z,8.18
2023-05-16T02:07:15.111Z,8.14
2023-05-16T02:09:41.748Z,8.10
2023-05-16T02:12:08.565Z,8.08
2023-05-16T02:14:35.106Z,8.06
2023-05-16T02:17:01.798Z,8.02
2023-05-16T02:19:28.680Z,8.01
2023-05-16T02:21:55.222Z,7.98
2023-05-16T02:24:21.690Z,7.97
2023-05-16T02:26:48.429Z,7.96
2023-05-16T02:29:16.564Z,7.95
2023-05-16T02:31:43.490Z,7.96
2023-05-16T02:34:10.986Z,7.96
2023-05-16T02:36:37.621Z,7.96
2023-05-16T02:39:04.263Z,7.95
2023-05-16T02:41:31.846Z,7.92
2023-05-16T02:43:58.697Z,7.88
2023-05-16T02:46:34.082Z,7.84
2023-05-16T02:49:01.549Z,7.84
2023-05-16T02:51:29.051Z,7.82
2023-05-16T02:53:59.813Z,7.84
2023-05-16T02:56:26.775Z,7.85
2023-05-16T02:58:54.586Z,7.82
2023-05-16T03:01:21.267Z,7.82
2023-05-16T03:03:47.975Z,7.83
2023-05-16T03:06:14.544Z,7.82
2023-05-16T03:08:41.584Z,7.82
2023-05-16T03:11:08.516Z,7.79
2023-05-16T03:13:35.133Z,7.78
2023-05-16T03:16:02.245Z,7.78
2023-05-16T03:18:28.859Z,7.76
2023-05-16T03:20:55.420Z,7.71
2023-05-16T03:23:21.979Z,7.69
2023-05-16T03:25:48.722Z,7.70
2023-05-16T03:28:17.171Z,7.67
2023-05-16T03:30:43.912Z,7.67
2023-05-16T03:33:10.598Z,7.69
2023-05-16T03:35:37.273Z,7.69
2023-05-16T03:38:04.037Z,7.68
2023-05-16T03:40:31.030Z,7.67
2023-05-16T03:42:57.630Z,7.67
2023-05-16T03:45:24.341Z,7.66
2023-05-16T03:47:51.360Z,7.65
2023-05-16T03:50:18.058Z,7.64
2023-05-16T03:52:44.628Z,7.65
2023-05-16T03:55:14.480Z,7.62
2023-05-16T03:57:44.656Z,7.62
2023-05-16T04:00:12.751Z,7.61
2023-05-16T04:02:43.934Z,7.61
2023-05-16T04:05:11.713Z,7.61
2023-05-16T04:07:38.466Z,7.62
2023-05-16T04:10:06.399Z,7.61
2023-05-16T04:12:32.995Z,7.60
2023-05-16T04:14:59.640Z,7.59
2023-05-16T04:17:26.314Z,7.60
2023-05-16T04:19:52.901Z,7.63
2023-05-16T04:22:22.039Z,7.60
2023-05-16T04:24:49.135Z,7.62
2023-05-16T04:27:15.761Z,7.68
2023-05-16T04:29:42.406Z,7.71
2023-05-16T04:32:09.621Z,7.77
2023-05-16T04:34:39.793Z,7.81
2023-05-16T04:37:08.628Z,7.85
2023-05-16T04:39:36.681Z,7.86
2023-05-16T04:42:04.452Z,7.86
2023-05-16T04:44:31.177Z,7.88
2023-05-16T04:46:57.912Z,7.88
2023-05-16T04:49:24.468Z,7.89
2023-05-16T04:51:51.166Z,7.88
2023-05-16T04:54:17.707Z,7.89
2023-05-16T04:56:44.121Z,7.90
2023-05-16T04:59:10.634Z,7.90
2023-05-16T05:01:37.414Z,7.93
2023-05-16T05:04:04.075Z,7.96
2023-05-16T05:06:31.518Z,7.99
2023-05-16T05:08:58.174Z,8.04
2023-05-16T05:11:24.716Z,8.06
2023-05-16T05:13:52.891Z,8.08
2023-05-16T05:16:19.585Z,8.12
2023-05-16T05:18:46.372Z,8.17
2023-05-16T05:21:13.041Z,8.22
2023-05-16T05:23:46.130Z,8.29
2023-05-16T05:26:12.784Z,8.36
2023-05-16T05:28:39.410Z,8.46
2023-05-16T05:31:06.676Z,8.57
2023-05-16T05:33:33.442Z,8.71
2023-05-16T05:36:01.909Z,8.82
2023-05-16T05:38:29.978Z,8.81
2023-05-16T05:40:56.979Z,8.77
2023-05-16T05:43:23.478Z,8.77
2023-05-16T05:45:50.173Z,8.83
2023-05-16T05:48:18.176Z,8.95
2023-05-16T05:50:45.053Z,9.02
2023-05-16T05:53:11.645Z,9.10
2023-05-16T05:55:38.275Z,9.13
2023-05-16T05:58:07.070Z,9.20
2023-05-16T06:00:33.912Z,9.28
2023-05-16T06:03:00.463Z,9.34
2023-05-16T06:05:27.194Z,9.38
2023-05-16T06:07:54.138Z,9.43
2023-05-16T06:10:21.550Z,9.48
2023-05-16T06:12:48.574Z,9.56
2023-05-16T06:15:15.287Z,9.64
2023-05-16T06:17:42.198Z,9.67
2023-05-16T06:20:09.123Z,9.75
2023-05-16T06:22:35.715Z,9.80
2023-05-16T06:25:02.282Z,9.88
2023-05-16T06:27:28.862Z,9.98
2023-05-16T06:29:55.654Z,10.13
2023-05-16T06:32:22.268Z,10.33
2023-05-16T06:34:49.509Z,10.38
2023-05-16T06:37:16.288Z,10.27
2023-05-16T06:39:42.851Z,10.38
2023-05-16T06:42:09.367Z,10.53
2023-05-16T06:44:36.002Z,10.57
2023-05-16T06:47:02.792Z,10.57
2023-05-16T06:49:29.574Z,10.64
2023-05-16T06:51:56.437Z,10.60
2023-05-16T06:54:22.989Z,10.62
2023-05-16T06:56:49.666Z,10.49
2023-05-16T06:59:16.334Z,10.45
2023-05-16T07:01:50.963Z,10.59
2023-05-16T07:04:17.870Z,10.74
2023-05-16T07:06:44.444Z,10.88
2023-05-16T07:09:11.597Z,11.00
2023-05-16T07:11:38.418Z,11.13
2023-05-16T07:14:05.115Z,11.12
2023-05-16T07:16:32.059Z,11.09
2023-05-16T07:18:58.640Z,11.12
2023-05-16T07:21:25.433Z,11.15
2023-05-16T07:23:52.064Z,11.25
2023-05-16T07:26:19.004Z,11.34
2023-05-16T07:28:45.698Z,11.46
2023-05-16T07:31:12.280Z,11.32
2023-05-16T07:33:38.965Z,11.29
2023-05-16T07:36:15.964Z,11.23
2023-05-16T07:38:43.937Z,11.21
2023-05-16T07:41:10.517Z,11.32
2023-05-16T07:43:37.574Z,11.71
2023-05-16T07:46:04.429Z,12.03
2023-05-16T07:48:31.196Z,11.94
2023-05-16T07:50:58.046Z,12.12
2023-05-16T07:53:24.898Z,12.23
2023-05-16T07:55:51.707Z,12.22
2023-05-16T07:58:18.506Z,12.03
2023-05-16T08:00:45.119Z,11.78
2023-05-16T08:03:11.787Z,11.37
2023-05-16T08:05:39.486Z,10.96
2023-05-16T08:08:06.298Z,10.62
2023-05-16T08:10:33.199Z,10.45
2023-05-16T08:12:59.894Z,10.11
2023-05-16T08:15:28.260Z,9.99
2023-05-16T08:17:58.600Z,10.03
2023-05-16T08:20:26.003Z,10.20
2023-05-16T08:22:52.650Z,10.39
2023-05-16T08:25:19.345Z,10.51
2023-05-16T08:27:46.835Z,10.62
2023-05-16T08:30:14.289Z,10.76
2023-05-16T08:32:41.052Z,10.88
2023-05-16T08:35:08.153Z,11.09
2023-05-16T08:37:35.145Z,11.35
2023-05-16T08:40:01.952Z,11.68
2023-05-16T08:42:28.535Z,11.95
2023-05-16T08:44:55.162Z,12.18
2023-05-16T08:47:24.926Z,11.82
2023-05-16T08:49:52.462Z,11.64
2023-05-16T08:52:21.460Z,11.48
2023-05-16T08:55:01.932Z,11.30
2023-05-16T08:57:36.808Z,11.18
2023-05-16T09:00:07.686Z,11.16
2023-05-16T09:02:34.410Z,11.45
2023-05-16T09:05:03.206Z,11.63
2023-05-16T09:07:29.820Z,11.91
2023-05-16T09:09:56.584Z,12.08
2023-05-16T09:12:23.211Z,12.22
2023-05-16T09:14:49.939Z,12.50
2023-05-16T09:17:18.673Z,12.58
2023-05-16T09:19:52.916Z,12.55
2023-05-16T09:22:19.766Z,12.71
2023-05-16T09:24:46.946Z,12.65
2023-05-16T09:27:15.461Z,12.55
2023-05-16T09:29:43.899Z,12.43
2023-05-16T09:32:15.618Z,12.58
2023-05-16T09:34:48.411Z,12.77
2023-05-16T09:37:19.168Z,12.97
2023-05-16T09:39:51.111Z,12.94
2023-05-16T09:42:19.990Z,13.09
2023-05-16T09:44:49.074Z,13.23
2023-05-16T09:47:19.310Z,13.42
2023-05-16T09:49:48.469Z,13.65
2023-05-16T09:52:15.263Z,13.52
2023-05-16T09:54:41.973Z,13.28
2023-05-16T09:57:08.929Z,13.04
2023-05-16T09:59:37.419Z,12.92
2023-05-16T10:02:06.136Z,13.09
2023-05-16T10:04:34.220Z,13.43
2023-05-16T10:07:05.722Z,13.94
2023-05-16T10:09:33.622Z,14.08
2023-05-16T10:12:07.972Z,13.92
2023-05-16T10:14:35.868Z,13.81
2023-05-16T10:17:06.615Z,13.77
2023-05-16T10:19:37.744Z,14.33
2023-05-16T10:22:06.660Z,14.20
2023-05-16T10:24:58.084Z,14.06
2023-05-16T10:27:25.912Z,14.12
2023-05-16T10:29:55.000Z,14.37
2023-05-16T10:32:24.426Z,14.44
2023-05-16T10:34:51.880Z,14.25
2023-05-16T10:37:18.717Z,14.23
2023-05-16T10:39:46.338Z,14.06
2023-05-16T10:42:18.313Z,14.38
2023-05-16T10:44:54.628Z,14.80
2023-05-16T10:47:25.067Z,15.14
2023-05-16T10:49:51.770Z,14.91
2023-05-16T10:52:18.352Z,14.66
2023-05-16T10:54:54.558Z,14.53
2023-05-16T10:57:24.424Z,14.29
2023-05-16T10:59:52.457Z,14.54
2023-05-16T11:02:29.101Z,14.68
2023-05-16T11:04:59.626Z,15.05
2023-05-16T11:07:34.628Z,15.57
2023-05-16T11:10:09.895Z,15.92
2023-05-16T11:12:49.393Z,15.53
2023-05-16T11:15:25.061Z,15.37
2023-05-16T11:18:08.812Z,15.11
2023-05-16T11:20:40.429Z,14.62
2023-05-16T11:23:18.820Z,14.49
2023-05-16T11:25:46.514Z,14.54
2023-05-16T11:28:14.709Z,14.67
2023-05-16T11:30:52.733Z,14.74
2023-05-16T11:33:19.523Z,14.71
2023-05-16T11:36:15.038Z,14.35
2023-05-16T11:38:43.866Z,14.07
2023-05-16T11:41:10.644Z,13.98
2023-05-16T11:43:39.484Z,14.04
2023-05-16T11:46:06.449Z,14.01
2023-05-16T11:48:36.707Z,13.96
2023-05-16T11:51:03.987Z,13.91
2023-05-16T11:53:30.603Z,13.98
2023-05-16T11:56:00.229Z,14.01
2023-05-16T11:58:27.734Z,14.06
2023-05-16T12:00:54.767Z,13.88
2023-05-16T12:03:23.876Z,13.75
2023-05-16T12:05:53.194Z,13.76
2023-05-16T12:08:21.982Z,13.90
2023-05-16T12:10:53.184Z,13.85
2023-05-16T12:13:22.826Z,13.96
2023-05-16T12:15:51.204Z,13.94
2023-05-16T12:18:20.572Z,13.98
2023-05-16T12:20:47.542Z,14.14
2023-05-16T12:23:14.490Z,14.06
2023-05-16T12:25:46.532Z,13.88
2023-05-16T12:28:14.603Z,13.87
2023-05-16T12:30:43.159Z,14.00
2023-05-16T12:33:15.619Z,13.99
2023-05-16T12:35:45.313Z,14.01
2023-05-16T12:38:14.103Z,13.99
2023-05-16T12:40:42.638Z,13.89
2023-05-16T12:43:15.528Z,13.85
2023-05-16T12:45:43.278Z,13.76
2023-05-16T12:48:14.226Z,13.73
2023-05-16T12:50:41.821Z,13.94
2023-05-16T12:53:13.911Z,14.58
2023-05-16T12:55:40.763Z,14.77
2023-05-16T12:58:08.378Z,14.61
2023-05-16T13:00:36.472Z,14.81
2023-05-16T13:03:03.764Z,14.81
2023-05-16T13:05:30.489Z,14.73
2023-05-16T13:07:57.061Z,14.64
2023-05-16T13:10:23.728Z,14.58
2023-05-16T13:12:50.342Z,14.69
2023-05-16T13:15:17.083Z,14.61
2023-05-16T13:17:48.413Z,14.48
2023-05-16T13:20:16.006Z,14.42
2023-05-16T13:22:43.953Z,14.38
2023-05-16T13:25:11.398Z,14.31
2023-05-16T13:27:37.988Z,14.25
2023-05-16T13:30:05.111Z,14.19
2023-05-16T13:32:31.780Z,14.03
2023-05-16T13:34:58.444Z,13.83
2023-05-16T13:37:25.049Z,13.73
2023-05-16T13:39:52.600Z,13.81
2023-05-16T13:42:19.181Z,13.92
2023-05-16T13:44:45.805Z,13.95
2023-05-16T13:47:12.515Z,14.06
2023-05-16T13:49:39.081Z,14.72
2023-05-16T13:52:08.687Z,14.77
2023-05-16T13:54:35.697Z,14.41
2023-05-16T13:57:03.606Z,14.23
2023-05-16T13:59:55.203Z,14.08
2023-05-16T14:02:17.147Z,14.00
2023-05-16T14:04:43.691Z,14.13
2023-05-16T14:07:10.400Z,14.20
2023-05-16T14:09:39.339Z,14.25
2023-05-16T14:12:07.503Z,14.19
2023-05-16T14:14:35.266Z,14.04
2023-05-16T14:17:02.379Z,13.95
2023-05-16T14:19:29.170Z,13.94
2023-05-16T14:21:56.151Z,13.85
2023-05-16T14:24:23.010Z,13.75
2023-05-16T14:26:57.581Z,13.84
2023-05-16T14:29:25.408Z,14.00
2023-05-16T14:31:52.183Z,14.17
2023-05-16T14:34:18.746Z,14.29
2023-05-16T14:36:48.495Z,14.33
2023-05-16T14:39:15.680Z,14.25
2023-05-16T14:41:42.217Z,14.20
2023-05-16T14:44:08.739Z,14.11
2023-05-16T14:46:35.855Z,13.91
2023-05-16T14:49:02.617Z,13.88
2023-05-16T14:51:29.400Z,13.75
2023-05-16T14:53:56.009Z,13.73
2023-05-16T14:56:22.718Z,13.74
2023-05-16T14:58:49.352Z,13.79
2023-05-16T15:01:16.682Z,13.85
2023-05-16T15:03:54.466Z,13.95
2023-05-16T15:06:21.685Z,14.12
2023-05-16T15:08:48.254Z,14.20
2023-05-16T15:11:14.996Z,14.25
2023-05-16T15:13:41.607Z,14.44
2023-05-16T15:16:08.468Z,14.66
2023-05-16T15:18:35.159Z,14.77
2023-05-16T15:21:01.748Z,14.96
2023-05-16T15:23:28.411Z,15.18
2023-05-16T15:25:55.285Z,15.27
2023-05-16T15:28:22.723Z,15.16
2023-05-16T15:30:51.143Z,14.96
2023-05-16T15:33:17.733Z,14.95
2023-05-16T15:35:44.528Z,14.89
2023-05-16T15:38:11.151Z,14.81
2023-05-16T15:40:37.867Z,14.78
2023-05-16T15:43:04.394Z,14.72
2023-05-16T15:45:31.357Z,14.60
2023-05-16T15:47:58.025Z,14.65
2023-05-16T15:50:24.632Z,14.42
2023-05-16T15:52:51.460Z,14.27
2023-05-16T15:55:18.032Z,14.19
2023-05-16T15:57:44.973Z,14.14
2023-05-16T16:00:12.487Z,14.11
2023-05-16T16:02:40.207Z,13.99
2023-05-16T16:05:07.486Z,13.86
2023-05-16T16:07:34.083Z,13.80
2023-05-16T16:10:00.773Z,13.64
2023-05-16T16:12:29.675Z,13.52
2023-05-16T16:14:56.321Z,13.52
2023-05-16T16:17:22.844Z,13.47
2023-05-16T16:19:49.484Z,13.45
2023-05-16T16:22:16.908Z,13.40
2023-05-16T16:24:43.461Z,13.29
2023-05-16T16:27:10.068Z,13.23
2023-05-16T16:29:36.604Z,13.21
2023-05-16T16:32:03.366Z,13.16
2023-05-16T16:34:29.959Z,13.17
2023-05-16T16:36:56.808Z,13.22
2023-05-16T16:39:23.565Z,13.20
2023-05-16T16:41:50.189Z,13.33
2023-05-16T16:44:17.121Z,13.43
2023-05-16T16:46:43.945Z,13.40
2023-05-16T16:49:10.625Z,13.49
2023-05-16T16:51:37.518Z,13.52
2023-05-16T16:54:04.169Z,13.52
2023-05-16T16:56:30.840Z,13.57
2023-05-16T16:58:57.603Z,13.54
2023-05-16T17:01:24.421Z,13.65
2023-05-16T17:03:51.037Z,13.68
2023-05-16T17:06:17.603Z,13.54
2023-05-16T17:08:45.447Z,13.42
2023-05-16T17:11:12.264Z,13.34
2023-05-16T17:13:41.972Z,13.30
2023-05-16T17:16:10.117Z,13.29
2023-05-16T17:18:37.100Z,13.27
2023-05-16T17:21:03.651Z,13.18
2023-05-16T17:23:30.266Z,13.09
2023-05-16T17:25:57.088Z,12.99
2023-05-16T17:28:23.643Z,13.03
2023-05-16T17:30:50.233Z,13.01
2023-05-16T17:33:16.775Z,12.97
2023-05-16T17:35:43.664Z,12.97
2023-05-16T17:38:11.123Z,13.02
2023-05-16T17:40:37.930Z,13.01
2023-05-16T17:43:05.666Z,13.04
2023-05-16T17:45:33.930Z,12.97
2023-05-16T17:48:00.727Z,12.93
2023-05-16T17:50:29.284Z,12.97
2023-05-16T17:52:55.863Z,13.02
2023-05-16T17:55:23.248Z,13.06
2023-05-16T17:57:50.069Z,13.06
2023-05-16T18:00:17.762Z,12.97
2023-05-16T18:02:44.814Z,13.07
2023-05-16T18:07:38.942Z,13.22
2023-05-16T18:10:06.080Z,13.09
2023-05-16T18:12:32.888Z,13.19
2023-05-16T18:14:59.421Z,13.47
2023-05-16T18:17:25.982Z,13.50
2023-05-16T18:19:52.883Z,13.46
2023-05-16T18:22:19.478Z,13.45
2023-05-16T18:24:46.072Z,13.42
2023-05-16T18:27:12.850Z,13.28
2023-05-16T18:29:39.486Z,13.38
2023-05-16T18:32:06.335Z,13.25
2023-05-16T18:34:34.101Z,13.10
2023-05-16T18:37:00.706Z,13.03
2023-05-16T18:39:27.289Z,12.94
2023-05-16T18:41:54.118Z,12.82
2023-05-16T18:44:20.634Z,12.70
2023-05-16T18:46:47.980Z,12.63
2023-05-16T18:49:14.760Z,12.59
2023-05-16T18:51:41.878Z,12.55
2023-05-16T18:54:08.496Z,12.44
2023-05-16T18:56:35.155Z,12.35
2023-05-16T18:59:04.557Z,12.24
2023-05-16T19:01:31.129Z,12.17
2023-05-16T19:03:57.989Z,12.09
2023-05-16T19:06:24.619Z,12.05
2023-05-16T19:08:51.348Z,11.98
2023-05-16T19:11:18.229Z,11.88
2023-05-16T19:13:47.204Z,11.78
2023-05-16T19:16:14.155Z,11.70
2023-05-16T19:18:40.842Z,11.64
2023-05-16T19:21:08.639Z,11.56
2023-05-16T19:23:35.423Z,11.48
2023-05-16T19:26:02.220Z,11.42
2023-05-16T19:28:28.869Z,11.38
2023-05-16T19:30:55.538Z,11.31
2023-05-16T19:33:22.387Z,11.28
2023-05-16T19:35:51.683Z,11.23
2023-05-16T19:38:19.895Z,11.21
2023-05-16T19:40:47.181Z,11.14
2023-05-16T19:43:13.729Z,11.08
2023-05-16T19:45:40.513Z,11.04
2023-05-16T19:48:08.141Z,11.02
2023-05-16T19:50:35.610Z,10.96
2023-05-16T19:53:02.914Z,10.90
2023-05-16T19:55:29.921Z,10.85
2023-05-16T19:57:57.416Z,10.78
2023-05-16T20:00:24.789Z,10.79
2023-05-16T20:02:51.467Z,10.76
2023-05-16T20:05:22.251Z,10.75
2023-05-16T20:07:49.666Z,10.74
2023-05-16T20:10:17.625Z,10.77
2023-05-16T20:12:45.096Z,10.75
2023-05-16T20:15:12.088Z,10.77
2023-05-16T20:17:40.189Z,10.76
2023-05-16T20:20:08.986Z,10.79
2023-05-16T20:22:39.448Z,10.82
2023-05-16T20:25:06.935Z,10.83
2023-05-16T20:27:33.750Z,10.82
2023-05-16T20:30:00.696Z,10.84
2023-05-16T20:32:27.816Z,10.77
2023-05-16T20:34:54.509Z,10.74
2023-05-16T20:37:23.306Z,10.68
2023-05-16T20:39:49.925Z,10.61
2023-05-16T20:42:16.663Z,10.53
2023-05-16T20:44:44.195Z,10.49
2023-05-16T20:47:10.781Z,10.40
2023-05-16T20:49:37.736Z,10.39
2023-05-16T20:52:05.061Z,10.35
2023-05-16T20:54:31.962Z,10.31
2023-05-16T20:56:58.492Z,10.26
2023-05-16T20:59:25.113Z,10.24
2023-05-16T21:01:52.102Z,10.22
2023-05-16T21:04:18.863Z,10.21
2023-05-16T21:06:45.748Z,10.18
2023-05-16T21:09:12.397Z,10.13
2023-05-16T21:11:39.129Z,10.08
2023-05-16T21:14:05.691Z,10.02
2023-05-16T21:16:32.234Z,10.01
2023-05-16T21:19:01.713Z,9.95
2023-05-16T21:21:28.445Z,9.88
2023-05-16T21:23:56.174Z,9.87
2023-05-16T21:26:23.068Z,9.87
2023-05-16T21:28:55.140Z,9.84
2023-05-16T21:31:22.780Z,9.82
2023-05-16T21:33:51.947Z,9.82
2023-05-16T21:36:19.880Z,9.79
2023-05-16T21:38:46.740Z,9.77
2023-05-16T21:41:13.834Z,9.74
2023-05-16T21:43:40.834Z,9.67
2023-05-16T21:46:07.399Z,9.65
2023-05-16T21:48:34.086Z,9.63
2023-05-16T21:51:00.936Z,9.59
2023-05-16T21:53:27.744Z,9.57
2023-05-16T21:55:54.300Z,9.55
2023-05-16T21:58:22.086Z,9.52
2023-05-16T22:00:49.631Z,9.49
2023-05-16T22:03:19.193Z,9.47
2023-05-16T22:05:48.855Z,9.44
2023-05-16T22:08:15.663Z,9.42
2023-05-16T22:10:42.686Z,9.39
2023-05-16T22:13:09.539Z,9.37
2023-05-16T22:15:36.276Z,9.37
2023-05-16T22:18:03.156Z,9.34
2023-05-16T22:20:29.864Z,9.30
2023-05-16T22:22:56.996Z,9.28
2023-05-16T22:25:23.629Z,9.26
2023-05-16T22:27:50.327Z,9.26
2023-05-16T22:30:17.065Z,9.24
2023-05-16T22:32:45.725Z,9.22
2023-05-16T22:35:13.550Z,9.18
2023-05-16T22:37:40.210Z,9.15
2023-05-16T22:40:08.242Z,9.14
2023-05-16T22:42:34.806Z,9.11
2023-05-16T22:45:01.309Z,9.09
2023-05-16T22:47:28.865Z,9.07
2023-05-16T22:49:55.729Z,9.04
2023-05-16T22:52:22.474Z,9.03
2023-05-16T22:54:49.240Z,9.03
2023-05-16T22:57:16.019Z,9.00
2023-05-16T22:59:42.854Z,8.98
2023-05-16T23:02:09.657Z,8.97
2023-05-16T23:04:36.404Z,8.95
2023-05-16T23:07:05.704Z,8.93
2023-05-16T23:09:32.274Z,8.91
2023-05-16T23:11:59.206Z,8.89
2023-05-16T23:14:26.228Z,8.88
2023-05-16T23:16:52.875Z,8.85
2023-05-16T23:19:19.650Z,8.82
2023-05-16T23:21:46.322Z,8.80
2023-05-16T23:24:12.840Z,8.76
2023-05-16T23:26:39.392Z,8.73
2023-05-16T23:29:06.228Z,8.68
2023-05-16T23:31:32.869Z,8.68
2023-05-16T23:33:59.600Z,8.64
2023-05-16T23:36:26.289Z,8.59
2023-05-16T23:38:52.863Z,8.57
2023-05-16T23:41:19.407Z,8.53
2023-05-16T23:43:45.928Z,8.47
2023-05-16T23:46:12.418Z,8.45
2023-05-16T23:48:39.981Z,8.41
2023-05-16T23:51:07.802Z,8.38
2023-05-16T23:53:37.174Z,8.36
2023-05-16T23:56:03.863Z,8.34
2023-05-16T23:58:30.578Z,8.29
